createdAt,value
2022-08-05T00:01:49.018Z,97245.16
2022-08-05T00:03:57.631Z,97236.13
2022-08-05T00:06:28.991Z,97240.47
2022-08-05T00:08:37.719Z,97241.06
2022-08-05T00:10:45.611Z,97237.06
2022-08-05T00:12:57.105Z,97238.34
2022-08-05T00:15:56.161Z,97240.06
2022-08-05T00:17:34.295Z,97233.09
2022-08-05T00:19:45.552Z,97235.06
2022-08-05T00:22:07.426Z,97232.03
2022-08-05T00:24:24.899Z,97233.91
2022-08-05T00:26:38.676Z,97233.22
2022-08-05T00:28:49.437Z,97236.69
2022-08-05T00:30:57.518Z,97240.31
2022-08-05T00:33:15.429Z,97241.25
2022-08-05T00:35:23.751Z,97251.22
2022-08-05T00:37:52.371Z,97252.00
2022-08-05T00:40:01.731Z,97248.47
2022-08-05T00:42:10.865Z,97250.91
2022-08-05T00:44:41.348Z,97245.84
2022-08-05T00:46:54.222Z,97247.75
2022-08-05T00:49:10.159Z,97240.84
2022-08-05T00:51:51.481Z,97242.56
2022-08-05T00:54:02.118Z,97240.41
2022-08-05T00:56:12.883Z,97247.16
2022-08-05T00:58:27.313Z,97254.25
2022-08-05T01:00:40.442Z,97254.72
2022-08-05T01:02:51.135Z,97263.91
2022-08-05T01:05:02.265Z,97259.63
2022-08-05T01:07:19.095Z,97275.88
2022-08-05T01:09:40.787Z,97291.34
2022-08-05T01:11:51.673Z,97296.00
2022-08-05T01:14:09.161Z,97301.72
2022-08-05T01:16:27.495Z,97306.72
2022-08-05T01:18:40.698Z,97308.19
2022-08-05T01:21:06.841Z,97317.41
2022-08-05T01:23:26.266Z,97309.59
2022-08-05T01:26:04.576Z,97311.06
2022-08-05T01:28:30.400Z,97314.94
2022-08-05T01:30:46.533Z,97310.72
2022-08-05T01:33:08.689Z,97317.31
2022-08-05T01:35:50.809Z,97321.28
2022-08-05T01:37:52.839Z,97325.25
2022-08-05T01:40:04.335Z,97328.53
2022-08-05T01:42:16.133Z,97319.63
2022-08-05T01:44:34.210Z,97329.09
2022-08-05T01:46:46.506Z,97337.50
2022-08-05T01:48:59.498Z,97338.06
2022-08-05T01:51:12.339Z,97336.38
2022-08-05T01:53:37.391Z,97342.66
2022-08-05T01:55:55.942Z,97352.38
2022-08-05T01:58:15.552Z,97348.00
2022-08-05T02:00:29.901Z,97356.84
2022-08-05T02:02:46.589Z,97358.72
2022-08-05T02:05:11.747Z,97367.72
2022-08-05T02:07:22.056Z,97355.91
2022-08-05T02:09:32.282Z,97359.41
2022-08-05T02:11:47.829Z,97351.97
2022-08-05T02:14:05.923Z,97357.31
2022-08-05T02:16:22.574Z,97357.53
2022-08-05T02:18:41.991Z,97351.63
2022-08-05T02:20:55.348Z,97349.56
2022-08-05T02:23:12.098Z,97340.84
2022-08-05T02:25:25.105Z,97344.38
2022-08-05T02:27:58.964Z,97353.47
2022-08-05T02:30:11.747Z,97352.81
2022-08-05T02:32:30.797Z,97364.22
2022-08-05T02:34:40.356Z,97371.09
2022-08-05T02:36:52.945Z,97363.66
2022-08-05T02:39:03.113Z,97364.34
2022-08-05T02:41:14.632Z,97361.72
2022-08-05T02:43:28.651Z,97364.88
2022-08-05T02:45:52.706Z,97378.66
2022-08-05T02:48:12.129Z,97370.78
2022-08-05T02:50:22.399Z,97369.94
2022-08-05T02:52:32.578Z,97369.00
2022-08-05T02:54:51.128Z,97372.19
2022-08-05T02:57:02.391Z,97370.34
2022-08-05T02:59:14.727Z,97371.28
2022-08-05T03:01:28.931Z,97376.78
2022-08-05T03:04:02.811Z,97373.88
2022-08-05T03:06:54.184Z,97367.72
2022-08-05T03:08:42.673Z,97368.47
2022-08-05T03:11:54.309Z,97374.56
2022-08-05T03:13:20.110Z,97384.91
2022-08-05T03:15:35.679Z,97379.50
2022-08-05T03:17:46.316Z,97389.22
2022-08-05T03:19:58.987Z,97387.34
2022-08-05T03:22:16.299Z,97387.53
2022-08-05T03:24:29.481Z,97382.00
2022-08-05T03:26:38.859Z,97383.50
2022-08-05T03:28:49.597Z,97389.25
2022-08-05T03:31:03.742Z,97391.13
2022-08-05T03:33:12.332Z,97400.09
2022-08-05T03:35:23.778Z,97391.59
2022-08-05T03:37:44.694Z,97395.88
2022-08-05T03:40:05.057Z,97404.41
2022-08-05T03:42:14.565Z,97404.59
2022-08-05T03:44:23.908Z,97400.09
2022-08-05T03:46:35.313Z,97401.28
2022-08-05T03:48:45.422Z,97406.69
2022-08-05T03:52:39.330Z,97412.19
2022-08-05T03:55:53.701Z,97411.41
2022-08-05T03:56:17.926Z,97409.34
2022-08-05T03:58:41.149Z,97395.16
2022-08-05T04:00:56.068Z,97408.63
2022-08-05T04:03:28.847Z,97401.81
2022-08-05T04:05:42.570Z,97392.44
2022-08-05T04:07:58.629Z,97383.13
2022-08-05T04:10:08.939Z,97372.56
2022-08-05T04:14:51.639Z,97384.34
2022-08-05T04:17:00.546Z,97397.59
2022-08-05T04:19:10.945Z,97399.97
2022-08-05T04:22:05.296Z,97415.38
2022-08-05T04:24:05.368Z,97422.41
2022-08-05T04:26:18.257Z,97428.66
2022-08-05T04:28:30.993Z,97434.50
2022-08-05T04:30:44.249Z,97427.84
2022-08-05T04:32:52.149Z,97428.66
2022-08-05T04:35:17.632Z,97439.31
2022-08-05T04:37:31.589Z,97439.31
2022-08-05T04:39:59.160Z,97453.16
2022-08-05T04:42:08.046Z,97458.53
2022-08-05T04:44:29.125Z,97463.16
2022-08-05T04:46:41.319Z,97478.34
2022-08-05T04:48:54.846Z,97484.53
2022-08-05T04:51:11.058Z,97474.81
2022-08-05T04:53:21.151Z,97491.06
2022-08-05T04:56:14.466Z,97498.53
2022-08-05T04:57:59.394Z,97507.84
2022-08-05T05:00:08.162Z,97511.31
2022-08-05T05:02:36.136Z,97516.88
2022-08-05T05:04:44.010Z,97531.56
2022-08-05T05:06:57.564Z,97527.69
2022-08-05T05:09:05.718Z,97527.94
2022-08-05T05:11:18.269Z,97534.78
2022-08-05T05:13:32.325Z,97555.03
2022-08-05T05:15:57.847Z,97575.66
2022-08-05T05:18:12.055Z,97595.44
2022-08-05T05:20:21.286Z,97604.22
2022-08-05T05:22:40.994Z,97608.63
2022-08-05T05:24:57.319Z,97618.75
2022-08-05T05:27:10.103Z,97628.72
2022-08-05T05:29:18.020Z,97622.34
2022-08-05T05:31:35.826Z,97635.84
2022-08-05T05:33:59.246Z,97644.09
2022-08-05T05:36:15.650Z,97663.97
2022-08-05T05:38:27.539Z,97667.22
2022-08-05T05:40:36.030Z,97677.75
2022-08-05T05:42:56.522Z,97683.38
2022-08-05T05:45:27.159Z,97691.75
2022-08-05T05:48:06.075Z,97708.97
2022-08-05T05:50:16.323Z,97709.09
2022-08-05T05:52:28.687Z,97722.44
2022-08-05T05:54:50.134Z,97729.31
2022-08-05T05:56:58.952Z,97732.28
2022-08-05T05:59:10.021Z,97745.53
2022-08-05T06:01:30.372Z,97745.50
2022-08-05T06:04:01.306Z,97746.59
2022-08-05T06:06:11.656Z,97737.13
2022-08-05T06:08:32.364Z,97742.78
2022-08-05T06:10:52.512Z,97734.63
2022-08-05T06:13:02.463Z,97742.28
2022-08-05T06:15:23.679Z,97738.31
2022-08-05T06:17:32.680Z,97737.22
2022-08-05T06:20:00.173Z,97739.00
2022-08-05T06:22:09.427Z,97724.50
2022-08-05T06:24:27.302Z,97720.44
2022-08-05T06:26:36.044Z,97718.38
2022-08-05T06:28:49.981Z,97728.97
2022-08-05T06:31:11.283Z,97716.84
2022-08-05T06:33:33.295Z,97719.75
2022-08-05T06:36:07.555Z,97699.88
2022-08-05T06:38:36.239Z,97692.25
2022-08-05T06:40:47.359Z,97694.91
2022-08-05T06:43:02.174Z,97684.91
2022-08-05T06:45:21.267Z,97684.13
2022-08-05T06:48:35.894Z,97665.75
2022-08-05T06:50:17.367Z,97673.56
2022-08-05T06:52:38.292Z,97664.06
2022-08-05T06:54:48.718Z,97660.09
2022-08-05T06:57:57.836Z,97665.09
2022-08-05T06:59:38.883Z,97665.75
2022-08-05T07:01:52.773Z,97666.38
2022-08-05T07:04:04.348Z,97673.00
2022-08-05T07:06:15.095Z,97663.03
2022-08-05T07:08:23.737Z,97670.34
2022-08-05T07:10:33.085Z,97660.28
2022-08-05T07:12:53.384Z,97659.84
2022-08-05T07:15:34.213Z,97668.41
2022-08-05T07:18:01.491Z,97669.09
2022-08-05T07:20:33.061Z,97674.50
2022-08-05T07:22:42.033Z,97672.31
2022-08-05T07:24:53.589Z,97673.97
2022-08-05T07:27:02.893Z,97674.06
2022-08-05T07:29:11.833Z,97680.41
2022-08-05T07:31:53.971Z,97676.31
2022-08-05T07:33:48.973Z,97685.81
2022-08-05T07:36:19.433Z,97687.41
2022-08-05T07:38:33.428Z,97684.50
2022-08-05T07:40:44.414Z,97685.94
2022-08-05T07:42:52.639Z,97684.81
2022-08-05T07:45:01.283Z,97681.09
2022-08-05T07:47:10.180Z,97688.53
2022-08-05T07:49:22.780Z,97690.09
2022-08-05T07:51:37.325Z,97689.38
2022-08-05T07:53:50.851Z,97696.44
2022-08-05T07:56:06.583Z,97692.72
2022-08-05T07:58:57.389Z,97694.50
2022-08-05T08:00:56.348Z,97690.47
2022-08-05T08:03:14.510Z,97699.75
2022-08-05T08:05:26.680Z,97685.31
2022-08-05T08:07:39.573Z,97691.41
2022-08-05T08:10:06.884Z,97690.22
2022-08-05T08:12:33.409Z,97693.28
2022-08-05T08:14:46.819Z,97692.94
2022-08-05T08:16:54.872Z,97697.09
2022-08-05T08:19:04.317Z,97685.72
2022-08-05T08:21:16.006Z,97691.84
2022-08-05T08:24:03.226Z,97687.44
2022-08-05T08:26:04.705Z,97691.34
2022-08-05T08:28:18.017Z,97683.69
2022-08-05T08:30:32.548Z,97693.47
2022-08-05T08:32:44.461Z,97682.59
2022-08-05T08:34:55.464Z,97685.31
2022-08-05T08:37:05.668Z,97688.06
2022-08-05T08:39:18.222Z,97695.28
2022-08-05T08:41:51.965Z,97693.66
2022-08-05T08:45:23.263Z,97686.50
2022-08-05T08:46:30.878Z,97696.28
2022-08-05T08:48:59.706Z,97687.56
2022-08-05T08:52:01.828Z,97685.31
2022-08-05T08:53:45.168Z,97677.53
2022-08-05T08:56:02.703Z,97664.91
2022-08-05T08:58:15.728Z,97667.41
2022-08-05T09:00:24.811Z,97667.72
2022-08-05T09:02:37.276Z,97656.94
2022-08-05T09:05:15.954Z,97656.09
2022-08-05T09:07:28.633Z,97655.56
2022-08-05T09:09:38.399Z,97661.41
2022-08-05T09:11:51.202Z,97649.44
2022-08-05T09:14:54.814Z,97654.22
2022-08-05T09:16:29.913Z,97656.00
2022-08-05T09:18:42.847Z,97654.22
2022-08-05T09:20:51.731Z,97645.78
2022-08-05T09:23:19.646Z,97646.81
2022-08-05T09:26:02.613Z,97645.34
2022-08-05T09:28:13.041Z,97644.28
2022-08-05T09:30:23.299Z,97628.38
2022-08-05T09:32:40.852Z,97631.97
2022-08-05T09:35:02.550Z,97629.81
2022-08-05T09:38:16.723Z,97629.25
2022-08-05T09:39:52.204Z,97632.13
2022-08-05T09:42:07.777Z,97627.25
2022-08-05T09:44:36.566Z,97622.22
2022-08-05T09:46:53.452Z,97614.41
2022-08-05T09:49:07.225Z,97615.31
2022-08-05T09:51:38.230Z,97604.22
2022-08-05T09:53:59.107Z,97604.88
2022-08-05T09:56:13.429Z,97613.56
2022-08-05T09:58:23.331Z,97606.09
2022-08-05T10:00:34.275Z,97607.66
2022-08-05T10:02:43.650Z,97609.22
2022-08-05T10:04:53.255Z,97608.81
2022-08-05T10:07:01.724Z,97612.66
2022-08-05T10:09:29.678Z,97605.69
2022-08-05T10:11:37.947Z,97601.31
2022-08-05T10:13:48.331Z,97613.31
2022-08-05T10:16:01.065Z,97605.28
2022-08-05T10:18:12.942Z,97603.88
2022-08-05T10:20:20.898Z,97606.31
2022-08-05T10:22:35.130Z,97598.22
2022-08-05T10:24:46.570Z,97605.75
2022-08-05T10:27:00.488Z,97607.13
2022-08-05T10:29:10.559Z,97600.47
2022-08-05T10:32:53.121Z,97597.09
2022-08-05T10:33:52.361Z,97595.09
2022-08-05T10:36:04.533Z,97598.06
2022-08-05T10:38:13.039Z,97595.59
2022-08-05T10:40:29.698Z,97592.03
2022-08-05T10:42:43.697Z,97590.22
2022-08-05T10:44:52.170Z,97594.28
2022-08-05T10:47:25.919Z,97592.91
2022-08-05T10:49:48.650Z,97591.31
2022-08-05T10:52:03.213Z,97590.00
2022-08-05T10:54:28.219Z,97586.34
2022-08-05T10:56:53.121Z,97591.09
2022-08-05T10:59:12.195Z,97589.41
2022-08-05T11:01:54.964Z,97577.63
2022-08-05T11:04:12.316Z,97582.59
2022-08-05T11:06:20.627Z,97588.38
2022-08-05T11:08:39.342Z,97583.78
2022-08-05T11:10:50.442Z,97579.97
2022-08-05T11:13:12.292Z,97584.00
2022-08-05T11:16:00.708Z,97589.91
2022-08-05T11:18:03.692Z,97590.41
2022-08-05T11:20:41.590Z,97590.44
2022-08-05T11:22:54.033Z,97607.06
2022-08-05T11:26:04.251Z,97602.38
2022-08-05T11:28:35.976Z,97599.22
2022-08-05T11:31:19.655Z,97602.03
2022-08-05T11:33:46.416Z,97587.53
2022-08-05T11:36:08.170Z,97585.41
2022-08-05T11:38:29.277Z,97592.41
2022-08-05T11:41:34.817Z,97593.00
2022-08-05T11:44:07.535Z,97593.25
2022-08-05T11:46:27.275Z,97591.75
2022-08-05T11:48:30.725Z,97599.13
2022-08-05T11:50:41.916Z,97592.19
2022-08-05T11:52:57.575Z,97590.28
2022-08-05T11:55:10.710Z,97585.13
2022-08-05T11:57:26.097Z,97587.50
2022-08-05T11:59:41.266Z,97583.91
2022-08-05T12:02:00.863Z,97587.56
2022-08-05T12:04:08.650Z,97585.09
2022-08-05T12:06:22.802Z,97585.19
2022-08-05T12:08:35.089Z,97581.78
2022-08-05T12:11:05.677Z,97568.50
2022-08-05T12:13:17.368Z,97575.91
2022-08-05T12:15:37.846Z,97572.59
2022-08-05T12:18:03.724Z,97572.34
2022-08-05T12:20:25.265Z,97566.94
2022-08-05T12:22:37.425Z,97561.28
2022-08-05T12:24:52.475Z,97558.00
2022-08-05T12:27:01.170Z,97558.75
2022-08-05T12:29:22.842Z,97552.44
2022-08-05T12:31:33.560Z,97552.16
2022-08-05T12:33:53.255Z,97564.00
2022-08-05T12:36:01.913Z,97554.16
2022-08-05T12:38:15.283Z,97555.47
2022-08-05T12:40:30.784Z,97548.19
2022-08-05T12:42:42.034Z,97548.97
2022-08-05T12:44:50.245Z,97549.34
2022-08-05T12:46:58.877Z,97554.72
2022-08-05T12:49:13.463Z,97546.22
2022-08-05T12:52:13.674Z,97550.53
2022-08-05T12:53:55.754Z,97552.63
2022-08-05T12:56:35.340Z,97540.44
2022-08-05T12:58:53.742Z,97545.81
2022-08-05T13:02:01.314Z,97538.00
2022-08-05T13:03:33.286Z,97535.91
2022-08-05T13:05:42.489Z,97539.44
2022-08-05T13:07:59.720Z,97534.88
2022-08-05T13:10:14.197Z,97531.00
2022-08-05T13:12:29.927Z,97532.66
2022-08-05T13:14:40.211Z,97529.34
2022-08-05T13:16:51.965Z,97527.88
2022-08-05T13:18:59.969Z,97523.97
2022-08-05T13:21:10.954Z,97518.28
2022-08-05T13:23:23.196Z,97521.78
2022-08-05T13:25:59.321Z,97522.97
2022-08-05T13:28:03.743Z,97519.59
2022-08-05T13:30:33.536Z,97522.81
2022-08-05T13:32:50.507Z,97507.84
2022-08-05T13:34:59.965Z,97517.88
2022-08-05T13:37:07.955Z,97519.19
2022-08-05T13:40:14.604Z,97508.13
2022-08-05T13:41:44.693Z,97508.69
2022-08-05T13:43:55.420Z,97502.88
2022-08-05T13:46:03.318Z,97501.97
2022-08-05T13:48:58.484Z,97493.13
2022-08-05T13:50:39.903Z,97493.16
2022-08-05T13:52:50.052Z,97487.16
2022-08-05T13:54:59.294Z,97491.09
2022-08-05T13:57:09.933Z,97482.47
2022-08-05T13:59:21.382Z,97477.47
2022-08-05T14:01:44.197Z,97480.97
2022-08-05T14:04:12.801Z,97482.84
2022-08-05T14:06:26.202Z,97475.25
2022-08-05T14:08:35.315Z,97484.13
2022-08-05T14:10:43.994Z,97474.97
2022-08-05T14:12:54.601Z,97485.38
2022-08-05T14:16:05.724Z,97479.50
2022-08-05T14:17:37.505Z,97475.09
2022-08-05T14:19:54.586Z,97470.25
2022-08-05T14:22:08.852Z,97471.59
2022-08-05T14:24:19.548Z,97471.34
2022-08-05T14:26:38.466Z,97472.84
2022-08-05T14:28:54.956Z,97467.25
2022-08-05T14:31:17.275Z,97476.72
2022-08-05T14:34:00.115Z,97475.53
2022-08-05T14:36:07.557Z,97477.31
2022-08-05T14:38:33.000Z,97472.31
2022-08-05T14:40:44.037Z,97473.91
2022-08-05T14:42:51.946Z,97474.50
2022-08-05T14:45:00.208Z,97475.31
2022-08-05T14:47:10.698Z,97486.50
2022-08-05T14:49:18.612Z,97488.41
2022-08-05T14:51:30.710Z,97478.94
2022-08-05T14:53:44.190Z,97475.38
2022-08-05T14:55:54.685Z,97478.13
2022-08-05T14:58:03.305Z,97471.66
2022-08-05T15:00:21.543Z,97475.16
2022-08-05T15:02:38.915Z,97470.78
2022-08-05T15:04:49.967Z,97466.38
2022-08-05T15:06:58.493Z,97478.19
2022-08-05T15:09:09.280Z,97478.50
2022-08-05T15:11:18.503Z,97488.53
2022-08-05T15:13:44.843Z,97502.16
2022-08-05T15:15:54.572Z,97518.16
2022-08-05T15:18:06.835Z,97523.38
2022-08-05T15:20:19.024Z,97523.38
2022-08-05T15:22:28.366Z,97518.31
2022-08-05T15:24:36.575Z,97492.94
2022-08-05T15:26:48.615Z,97487.06
2022-08-05T15:28:56.540Z,97489.84
2022-08-05T15:31:06.204Z,97493.78
2022-08-05T15:33:53.762Z,97498.69
2022-08-05T15:35:48.812Z,97502.78
2022-08-05T15:38:08.438Z,97503.09
2022-08-05T15:41:01.026Z,97521.94
2022-08-05T15:42:55.681Z,97538.66
2022-08-05T15:45:07.004Z,97541.59
2022-08-05T15:47:17.624Z,97541.66
2022-08-05T15:49:53.726Z,97540.97
2022-08-05T15:52:13.268Z,97540.41
2022-08-05T15:54:35.191Z,97529.00
2022-08-05T15:56:45.493Z,97524.56
2022-08-05T15:58:53.622Z,97524.25
2022-08-05T16:01:16.411Z,97518.28
2022-08-05T16:03:29.062Z,97515.44
2022-08-05T16:05:41.878Z,97516.34
2022-08-05T16:07:51.985Z,97524.22
2022-08-05T16:10:02.346Z,97526.38
2022-08-05T16:12:11.419Z,97526.56
2022-08-05T16:14:20.571Z,97533.31
2022-08-05T16:16:30.194Z,97519.75
2022-08-05T16:18:52.489Z,97514.56
2022-08-05T16:21:04.266Z,97529.50
2022-08-05T16:23:12.982Z,97534.34
2022-08-05T16:25:23.978Z,97542.50
2022-08-05T16:27:47.364Z,97552.44
2022-08-05T16:30:23.047Z,97549.97
2022-08-05T16:32:33.368Z,97564.88
2022-08-05T16:34:43.115Z,97563.84
2022-08-05T16:36:54.177Z,97563.22
2022-08-05T16:39:03.126Z,97576.69
2022-08-05T16:42:12.469Z,97580.28
2022-08-05T16:43:40.242Z,97575.91
2022-08-05T16:46:04.607Z,97572.53
2022-08-05T16:48:25.323Z,97569.41
2022-08-05T16:50:34.104Z,97581.22
2022-08-05T16:52:46.146Z,97581.59
2022-08-05T16:54:54.233Z,97584.13
2022-08-05T16:57:02.505Z,97577.63
2022-08-05T16:59:14.605Z,97576.59
2022-08-05T17:01:24.804Z,97583.72
2022-08-05T17:03:35.076Z,97584.75
2022-08-05T17:05:43.053Z,97590.41
2022-08-05T17:07:54.974Z,97594.63
2022-08-05T17:10:02.935Z,97600.47
2022-08-05T17:12:11.859Z,97603.03
2022-08-05T17:14:34.252Z,97593.56
2022-08-05T17:16:45.556Z,97590.97
2022-08-05T17:18:53.857Z,97586.78
2022-08-05T17:21:02.388Z,97589.06
2022-08-05T17:24:05.886Z,97597.44
2022-08-05T17:25:48.074Z,97594.84
2022-08-05T17:27:56.816Z,97613.09
2022-08-05T17:30:07.082Z,97619.38
2022-08-05T17:32:20.165Z,97620.81
2022-08-05T17:34:29.887Z,97629.22
2022-08-05T17:36:40.595Z,97625.59
2022-08-05T17:38:51.326Z,97624.38
2022-08-05T17:40:59.619Z,97630.53
2022-08-05T17:43:07.697Z,97629.44
2022-08-05T17:45:21.286Z,97632.81
2022-08-05T17:47:30.506Z,97637.34
2022-08-05T17:49:51.950Z,97638.38
2022-08-05T17:52:08.412Z,97638.06
2022-08-05T17:54:23.672Z,97642.75
2022-08-05T17:56:31.514Z,97655.41
2022-08-05T17:58:40.227Z,97656.84
2022-08-05T18:00:51.027Z,97669.00
2022-08-05T18:02:59.416Z,97662.47
2022-08-05T18:05:08.284Z,97671.34
2022-08-05T18:07:16.225Z,97679.88
2022-08-05T18:09:28.429Z,97673.56
2022-08-05T18:11:56.800Z,97681.69
2022-08-05T18:14:13.617Z,97687.97
2022-08-05T18:16:22.044Z,97698.31
2022-08-05T18:18:30.175Z,97692.72
2022-08-05T18:20:38.309Z,97693.28
2022-08-05T18:22:54.473Z,97702.03
2022-08-05T18:25:09.286Z,97701.28
2022-08-05T18:27:18.925Z,97702.13
2022-08-05T18:29:40.264Z,97714.16
2022-08-05T18:31:49.761Z,97719.22
2022-08-05T18:33:57.717Z,97728.59
2022-08-05T18:36:11.906Z,97734.13
2022-08-05T18:38:25.907Z,97728.94
2022-08-05T18:41:54.250Z,97750.63
2022-08-05T18:43:16.406Z,97759.00
2022-08-05T18:45:26.115Z,97760.75
2022-08-05T18:47:56.679Z,97763.75
2022-08-05T18:50:44.879Z,97767.78
2022-08-05T18:52:53.699Z,97772.84
2022-08-05T18:55:04.769Z,97769.66
2022-08-05T18:57:17.381Z,97789.31
2022-08-05T18:59:50.682Z,97782.03
2022-08-05T19:01:57.008Z,97788.91
2022-08-05T19:04:06.574Z,97780.91
2022-08-05T19:06:22.380Z,97795.44
2022-08-05T19:08:42.589Z,97790.53
2022-08-05T19:10:50.469Z,97789.09
2022-08-05T19:13:02.494Z,97783.25
2022-08-05T19:15:57.935Z,97795.19
2022-08-05T19:17:59.856Z,97797.81
2022-08-05T19:20:15.179Z,97808.34
2022-08-05T19:22:27.693Z,97810.06
2022-08-05T19:24:35.892Z,97807.84
2022-08-05T19:26:55.197Z,97811.47
2022-08-05T19:29:07.005Z,97826.00
2022-08-05T19:31:17.890Z,97823.84
2022-08-05T19:33:36.386Z,97821.84
2022-08-05T19:35:55.999Z,97811.47
2022-08-05T19:38:08.149Z,97824.09
2022-08-05T19:40:17.609Z,97821.19
2022-08-05T19:42:34.926Z,97829.50
2022-08-05T19:44:46.800Z,97830.88
2022-08-05T19:46:56.881Z,97841.94
2022-08-05T19:49:07.095Z,97846.66
2022-08-05T19:52:05.131Z,97848.53
2022-08-05T19:54:03.338Z,97853.63
2022-08-05T19:56:15.202Z,97850.78
2022-08-05T19:58:30.127Z,97855.19
2022-08-05T20:00:41.115Z,97858.41
2022-08-05T20:02:49.550Z,97856.91
2022-08-05T20:04:58.760Z,97861.31
2022-08-05T20:07:13.125Z,97873.19
2022-08-05T20:09:21.666Z,97872.53
2022-08-05T20:11:29.546Z,97872.75
2022-08-05T20:13:58.954Z,97875.78
2022-08-05T20:16:08.259Z,97878.34
2022-08-05T20:18:33.271Z,97880.72
2022-08-05T20:20:47.521Z,97883.91
2022-08-05T20:22:56.213Z,97887.31
2022-08-05T20:25:06.782Z,97884.97
2022-08-05T20:27:16.116Z,97888.84
2022-08-05T20:29:27.524Z,97893.44
2022-08-05T20:31:52.109Z,97900.56
2022-08-05T20:34:01.574Z,97892.75
2022-08-05T20:36:11.244Z,97903.91
2022-08-05T20:38:26.664Z,97924.34
2022-08-05T20:40:35.610Z,97913.34
2022-08-05T20:42:43.692Z,97915.50
2022-08-05T20:44:51.554Z,97906.53
2022-08-05T20:47:08.546Z,97910.41
2022-08-05T20:49:23.964Z,97916.97
2022-08-05T20:51:32.521Z,97914.94
2022-08-05T20:53:40.672Z,97935.03
2022-08-05T20:55:56.443Z,97942.97
2022-08-05T20:58:19.392Z,97951.44
2022-08-05T21:00:51.778Z,97963.38
2022-08-05T21:03:01.248Z,97962.84
2022-08-05T21:05:12.079Z,97978.34
2022-08-05T21:07:20.067Z,97974.63
2022-08-05T21:09:30.058Z,97972.94
2022-08-05T21:12:09.615Z,97977.66
2022-08-05T21:14:05.690Z,97977.44
2022-08-05T21:16:13.487Z,97999.31
2022-08-05T21:18:24.429Z,98007.56
2022-08-05T21:20:34.346Z,98013.59
2022-08-05T21:22:42.489Z,98012.19
2022-08-05T21:24:51.942Z,98028.56
2022-08-05T21:27:00.321Z,98034.28
2022-08-05T21:29:16.714Z,98038.38
2022-08-05T21:31:24.924Z,98022.00
2022-08-05T21:33:40.069Z,98026.03
2022-08-05T21:35:55.733Z,98028.13
2022-08-05T21:38:06.647Z,98034.22
2022-08-05T21:40:16.555Z,98026.91
2022-08-05T21:42:41.443Z,98030.31
2022-08-05T21:44:52.664Z,98023.69
2022-08-05T21:47:01.207Z,98015.25
2022-08-05T21:49:58.523Z,98004.50
2022-08-05T21:52:27.403Z,98008.94
2022-08-05T21:54:09.588Z,98009.06
2022-08-05T21:56:17.651Z,98024.59
2022-08-05T21:58:32.035Z,98032.25
2022-08-05T22:00:40.430Z,98032.13
2022-08-05T22:02:48.513Z,98039.22
2022-08-05T22:04:59.559Z,98045.75
2022-08-05T22:07:08.597Z,98047.53
2022-08-05T22:09:21.016Z,98048.16
2022-08-05T22:11:35.381Z,98047.16
2022-08-05T22:14:34.436Z,98053.56
2022-08-05T22:16:41.187Z,98062.47
2022-08-05T22:18:39.337Z,98066.22
2022-08-05T22:20:51.618Z,98061.66
2022-08-05T22:23:17.124Z,98064.06
2022-08-05T22:26:11.153Z,98066.06
2022-08-05T22:28:12.112Z,98073.03
2022-08-05T22:30:20.127Z,98089.91
2022-08-05T22:32:28.325Z,98094.19
2022-08-05T22:34:36.670Z,98092.41
2022-08-05T22:36:48.210Z,98090.59
2022-08-05T22:38:56.251Z,98097.47
2022-08-05T22:41:09.893Z,98101.03
2022-08-05T22:43:36.810Z,98105.84
2022-08-05T22:45:45.699Z,98123.19
2022-08-05T22:47:55.380Z,98120.03
2022-08-05T22:50:20.885Z,98123.13
2022-08-05T22:52:34.492Z,98119.25
2022-08-05T22:54:48.810Z,98115.59
2022-08-05T22:56:57.043Z,98113.22
2022-08-05T22:59:45.279Z,98120.03
2022-08-05T23:02:04.858Z,98126.34
2022-08-05T23:04:00.872Z,98127.88
2022-08-05T23:06:10.160Z,98128.13
2022-08-05T23:08:20.716Z,98137.22
2022-08-05T23:10:28.592Z,98136.13
2022-08-05T23:12:36.839Z,98139.75
2022-08-05T23:14:45.959Z,98137.59
2022-08-05T23:17:06.233Z,98139.06
2022-08-05T23:19:25.781Z,98143.03
2022-08-05T23:21:42.838Z,98145.91
2022-08-05T23:23:58.687Z,98153.16
2022-08-05T23:26:06.607Z,98148.44
2022-08-05T23:28:15.872Z,98145.06
2022-08-05T23:30:27.105Z,98143.38
2022-08-05T23:32:37.054Z,98154.91
2022-08-05T23:35:28.660Z,98158.00
2022-08-05T23:37:42.715Z,98158.44
2022-08-05T23:39:55.083Z,98168.72
2022-08-05T23:42:03.794Z,98168.81
2022-08-05T23:44:19.656Z,98167.41
2022-08-05T23:46:30.301Z,98171.44
2022-08-05T23:48:38.607Z,98169.16
2022-08-05T23:50:46.597Z,98174.41
2022-08-05T23:52:54.633Z,98168.59
2022-08-05T23:55:10.186Z,98167.91
2022-08-05T23:57:19.144Z,98176.69
